Time;durP1;ratioP1;P1;durP2;ratioP2;P2;SDS_P1;SDS_P2;PMS_P1;PMS_P2;Temp;Humidity;BMP_temperature;BMP_pressure;BME280_temperature;BME280_humidity;BME280_pressure;Samples;Min_cycle;Max_cycle;Signal;HPM_P1;HPM_P2
2021/11/07 00:01:21;;;;;;;5.38;3.97;;;9.10;96.90;;;;;;5023165;28;20022;-78
2021/11/07 00:06:31;;;;;;;6.10;4.90;;;9.10;96.90;;;;;;5018552;28;20018;-78
2021/11/07 00:09:21;;;;;;;7.03;4.70;;;9.10;96.80;;;;;;5013089;28;20124;-78
2021/11/07 00:11:50;;;;;;;8.20;3.88;;;9.10;96.50;;;;;;5020229;28;20083;-78
2021/11/07 00:14:15;;;;;;;5.90;3.75;;;9.10;96.50;;;;;;5021016;28;20375;-78
2021/11/07 00:16:43;;;;;;;7.40;3.63;;;9.20;96.50;;;;;;5026262;28;20037;-79
2021/11/07 00:19:35;;;;;;;8.15;4.22;;;9.20;96.40;;;;;;5020731;28;20030;-79
2021/11/07 00:22:11;;;;;;;4.28;2.83;;;9.20;96.40;;;;;;5024861;28;20259;-78
2021/11/07 00:27:26;;;;;;;5.82;3.75;;;9.20;96.30;;;;;;5027593;28;20036;-78
2021/11/07 00:30:05;;;;;;;6.55;3.83;;;9.20;96.50;;;;;;5021711;28;20111;-78
2021/11/07 00:32:50;;;;;;;6.10;4.00;;;9.20;96.30;;;;;;5019453;28;20032;-78
2021/11/07 00:37:43;;;;;;;5.20;3.83;;;9.20;96.00;;;;;;5019989;28;20482;-80
2021/11/07 00:40:30;;;;;;;5.70;4.57;;;9.30;96.40;;;;;;5026919;28;20029;-78
2021/11/07 00:43:03;;;;;;;6.28;4.32;;;9.30;96.40;;;;;;5029947;28;20075;-79
2021/11/07 00:45:58;;;;;;;7.03;4.15;;;9.30;96.20;;;;;;5018259;28;20035;-79
2021/11/07 00:48:26;;;;;;;10.27;4.93;;;9.40;96.30;;;;;;5021727;28;20026;-78
2021/11/07 00:54:00;;;;;;;5.35;4.32;;;9.30;96.20;;;;;;5030487;28;20037;-78
2021/11/07 00:56:36;;;;;;;5.07;4.38;;;9.30;96.10;;;;;;5023982;28;20050;-79
2021/11/07 00:59:11;;;;;;;5.13;4.05;;;9.20;96.10;;;;;;5028042;28;20048;-79
2021/11/07 01:01:41;;;;;;;7.07;4.32;;;9.20;95.80;;;;;;5037248;28;20017;-78
2021/11/07 01:04:11;;;;;;;6.22;4.22;;;9.20;95.80;;;;;;5039628;28;20030;-78
2021/11/07 01:06:37;;;;;;;9.02;4.53;;;9.20;95.50;;;;;;5027026;28;20061;-79
2021/11/07 01:09:03;;;;;;;7.75;5.07;;;9.20;95.50;;;;;;5028330;28;20092;-79
2021/11/07 01:11:29;;;;;;;6.03;4.95;;;9.20;95.80;;;;;;5028651;28;20033;-79
2021/11/07 01:13:55;;;;;;;6.78;4.47;;;9.10;95.60;;;;;;5030524;28;20044;-78
2021/11/07 01:16:21;;;;;;;6.80;4.97;;;9.10;95.60;;;;;;5029251;28;20084;-79
2021/11/07 01:18:47;;;;;;;7.50;4.75;;;9.10;95.60;;;;;;5020133;28;20057;-80
2021/11/07 01:21:15;;;;;;;9.20;5.30;;;9.00;95.60;;;;;;5028240;28;20060;-79
2021/11/07 01:24:34;;;;;;;7.70;5.40;;;9.00;95.70;;;;;;5018689;28;20100;-79
2021/11/07 01:29:11;;;;;;;6.70;5.35;;;9.00;95.90;;;;;;5021041;28;20497;-78
2021/11/07 01:31:38;;;;;;;7.25;5.43;;;9.00;95.80;;;;;;5014492;28;20480;-78
2021/11/07 01:34:05;;;;;;;8.05;5.85;;;9.00;96.00;;;;;;5015462;28;20110;-78
2021/11/07 01:36:50;;;;;;;8.70;5.90;;;8.90;96.00;;;;;;5019387;28;20100;-79
2021/11/07 01:39:20;;;;;;;6.97;4.68;;;8.80;96.00;;;;;;5029498;28;20100;-78
2021/11/07 01:42:06;;;;;;;6.18;4.57;;;8.80;96.00;;;;;;5021401;28;20071;-78
2021/11/07 01:44:42;;;;;;;9.27;5.20;;;8.70;96.00;;;;;;5021140;28;20017;-78
2021/11/07 01:47:08;;;;;;;6.82;4.90;;;8.70;96.00;;;;;;5028973;28;20030;-78
2021/11/07 01:49:37;;;;;;;5.20;4.50;;;8.60;96.10;;;;;;5032211;28;20030;-79
2021/11/07 01:52:07;;;;;;;8.98;4.53;;;8.60;96.10;;;;;;5027577;28;20021;-80
2021/11/07 01:54:47;;;;;;;6.75;5.15;;;8.70;96.10;;;;;;5026343;28;20926;-80
2021/11/07 01:57:15;;;;;;;6.55;4.70;;;8.70;96.20;;;;;;5019035;28;20034;-79
2021/11/07 01:59:51;;;;;;;6.43;5.30;;;8.80;96.10;;;;;;5022283;28;20049;-80
2021/11/07 02:02:18;;;;;;;7.70;5.43;;;8.80;96.10;;;;;;5013949;28;20036;-78
2021/11/07 02:04:44;;;;;;;7.13;5.47;;;8.80;96.00;;;;;;5021810;28;20025;-80
2021/11/07 02:07:10;;;;;;;7.10;5.50;;;8.80;96.10;;;;;;5020333;28;20610;-80
2021/11/07 02:09:37;;;;;;;6.05;5.03;;;8.80;96.20;;;;;;5027840;28;20443;-79
2021/11/07 02:12:04;;;;;;;7.38;5.78;;;8.80;96.30;;;;;;5023831;28;20478;-79
2021/11/07 02:14:31;;;;;;;6.93;5.25;;;8.70;96.30;;;;;;5026637;28;20386;-79
2021/11/07 02:16:57;;;;;;;8.18;5.82;;;8.70;96.30;;;;;;5039186;28;20470;-79
2021/11/07 02:19:22;;;;;;;6.28;5.47;;;8.70;96.40;;;;;;5032686;28;20029;-79
2021/11/07 02:21:49;;;;;;;8.00;5.78;;;8.60;96.50;;;;;;5023187;28;20514;-80
2021/11/07 02:24:16;;;;;;;9.20;5.80;;;8.60;96.50;;;;;;5023232;28;20026;-79
2021/11/07 02:26:52;;;;;;;10.88;5.55;;;8.60;96.60;;;;;;5023118;28;20029;-80
2021/11/07 02:29:19;;;;;;;7.53;5.53;;;8.60;96.60;;;;;;5020693;28;20109;-77
2021/11/07 02:31:44;;;;;;;6.25;5.03;;;8.60;96.60;;;;;;5026870;28;20055;-78
2021/11/07 02:34:10;;;;;;;6.72;4.78;;;8.60;96.50;;;;;;5026169;28;20530;-79
2021/11/07 02:36:35;;;;;;;5.85;4.78;;;8.60;96.60;;;;;;5020769;28;20117;-79
2021/11/07 02:39:01;;;;;;;6.57;4.57;;;8.70;96.60;;;;;;5017265;28;20033;-79
2021/11/07 02:41:26;;;;;;;8.43;5.10;;;8.70;96.70;;;;;;5022446;28;20034;-79
2021/11/07 02:43:55;;;;;;;4.53;3.67;;;8.70;96.80;;;;;;5028207;28;20158;-79
2021/11/07 02:46:21;;;;;;;4.30;3.75;;;8.70;96.70;;;;;;5027777;28;20022;-79
2021/11/07 02:48:50;;;;;;;5.15;4.32;;;8.70;96.70;;;;;;5023471;28;20497;-78
2021/11/07 02:51:21;;;;;;;7.75;3.92;;;8.70;96.60;;;;;;5016738;28;20034;-79
2021/11/07 02:53:47;;;;;;;5.18;3.83;;;8.70;96.50;;;;;;5016585;28;20116;-79
2021/11/07 02:56:14;;;;;;;3.92;3.50;;;8.70;96.50;;;;;;5037492;28;20546;-79
2021/11/07 02:58:40;;;;;;;5.10;3.78;;;8.70;96.20;;;;;;5015554;28;20021;-79
2021/11/07 03:01:06;;;;;;;5.70;3.88;;;8.80;96.20;;;;;;5020882;28;20033;-78
2021/11/07 03:03:32;;;;;;;6.03;4.35;;;8.90;96.20;;;;;;5025900;28;20029;-79
2021/11/07 03:06:00;;;;;;;7.30;4.45;;;8.90;96.10;;;;;;5023351;28;20029;-79
2021/11/07 03:08:26;;;;;;;4.70;3.63;;;8.90;95.90;;;;;;5030899;28;20554;-79
2021/11/07 03:10:51;;;;;;;5.60;4.20;;;8.90;95.90;;;;;;5026699;28;20112;-78
2021/11/07 03:13:19;;;;;;;8.18;4.28;;;8.90;95.70;;;;;;5009621;28;20467;-78
2021/11/07 03:15:45;;;;;;;5.72;3.90;;;9.00;95.60;;;;;;5025771;28;20030;-78
2021/11/07 03:18:11;;;;;;;4.18;3.60;;;9.00;95.50;;;;;;5025946;28;20028;-78
2021/11/07 03:20:37;;;;;;;5.55;4.38;;;9.10;95.30;;;;;;5027912;28;20064;-79
2021/11/07 03:23:05;;;;;;;4.53;4.10;;;9.10;95.00;;;;;;5031406;28;20097;-79
2021/11/07 03:25:31;;;;;;;6.32;4.30;;;9.00;94.90;;;;;;5020721;28;20034;-78
2021/11/07 03:27:57;;;;;;;5.35;4.20;;;9.10;94.90;;;;;;5019291;28;20466;-79
2021/11/07 03:32:58;;;;;;;5.25;3.70;;;9.10;94.60;;;;;;5021090;28;20048;-79
2021/11/07 03:35:23;;;;;;;5.97;3.65;;;9.10;94.80;;;;;;5024795;28;20545;-78
2021/11/07 03:37:56;;;;;;;6.40;3.90;;;9.00;94.60;;;;;;5022114;28;20033;-79
2021/11/07 03:40:24;;;;;;;5.03;3.78;;;9.00;94.40;;;;;;5024242;28;20394;-79
2021/11/07 03:42:51;;;;;;;5.60;3.63;;;9.00;94.50;;;;;;5020865;28;20029;-79
2021/11/07 03:45:17;;;;;;;6.43;3.80;;;9.00;94.50;;;;;;5025243;28;20033;-79
2021/11/07 03:47:42;;;;;;;4.13;3.38;;;9.00;94.50;;;;;;5022669;28;20056;-79
2021/11/07 03:50:09;;;;;;;5.72;3.65;;;8.90;94.40;;;;;;5024834;28;20076;-79
2021/11/07 03:52:34;;;;;;;7.72;3.00;;;8.90;94.40;;;;;;5030115;28;20026;-79
2021/11/07 03:55:00;;;;;;;4.63;3.80;;;8.90;94.30;;;;;;5032436;28;20151;-79
2021/11/07 03:57:25;;;;;;;4.40;3.20;;;8.90;94.10;;;;;;5023355;28;20120;-80
2021/11/07 03:59:51;;;;;;;5.78;3.78;;;9.00;94.10;;;;;;5024982;28;20038;-79
2021/11/07 04:02:18;;;;;;;5.93;3.67;;;9.00;94.00;;;;;;5025984;28;20030;-79
2021/11/07 04:04:44;;;;;;;5.93;3.38;;;9.00;93.90;;;;;;5021213;28;20030;-78
2021/11/07 04:07:09;;;;;;;4.38;3.80;;;8.90;94.30;;;;;;5026419;28;20052;-79
2021/11/07 04:09:35;;;;;;;4.18;3.17;;;8.90;94.30;;;;;;5020076;28;20394;-80
2021/11/07 04:12:01;;;;;;;4.85;3.70;;;8.90;93.90;;;;;;5038749;28;20044;-79
2021/11/07 04:14:33;;;;;;;5.20;3.90;;;8.90;94.10;;;;;;5039952;28;20521;-79
2021/11/07 04:16:59;;;;;;;8.35;5.00;;;8.90;94.10;;;;;;5018273;28;20033;-79
2021/11/07 04:19:25;;;;;;;4.35;3.58;;;8.90;94.20;;;;;;5027324;28;20434;-78
2021/11/07 04:21:52;;;;;;;5.43;3.40;;;8.90;94.30;;;;;;5018286;28;20040;-79
2021/11/07 04:24:18;;;;;;;5.28;4.05;;;8.80;94.20;;;;;;5024426;28;20025;-79
2021/11/07 04:26:43;;;;;;;5.00;3.78;;;8.80;94.30;;;;;;5029805;28;20083;-79
2021/11/07 04:29:09;;;;;;;5.63;4.28;;;8.80;94.40;;;;;;5023055;28;20049;-79
2021/11/07 04:31:34;;;;;;;5.40;4.25;;;8.80;94.60;;;;;;5018485;28;20038;-78
2021/11/07 04:34:00;;;;;;;7.43;4.28;;;8.80;94.60;;;;;;5029577;28;20124;-79
2021/11/07 04:36:26;;;;;;;5.15;4.25;;;8.80;94.60;;;;;;5021023;28;20459;-79
2021/11/07 04:38:51;;;;;;;5.15;4.10;;;8.80;94.40;;;;;;5023287;28;20033;-79
2021/11/07 04:41:17;;;;;;;5.13;3.38;;;8.80;94.60;;;;;;5018511;28;20034;-79
2021/11/07 04:43:44;;;;;;;4.72;3.40;;;8.80;94.40;;;;;;5018766;28;20028;-79
2021/11/07 04:46:14;;;;;;;4.72;3.65;;;8.80;94.20;;;;;;5037840;28;20025;-79
2021/11/07 04:48:40;;;;;;;7.07;3.88;;;8.90;94.30;;;;;;5024001;28;20041;-79
2021/11/07 04:51:06;;;;;;;7.45;4.30;;;8.90;94.20;;;;;;5015403;28;20033;-79
2021/11/07 04:53:31;;;;;;;4.88;3.70;;;8.90;94.30;;;;;;5016495;28;20116;-80
2021/11/07 04:55:57;;;;;;;5.72;3.80;;;8.90;94.20;;;;;;5033181;28;20471;-80
2021/11/07 04:58:22;;;;;;;6.18;3.42;;;9.00;94.30;;;;;;5023215;28;20025;-80
2021/11/07 05:00:48;;;;;;;4.05;3.65;;;8.90;94.30;;;;;;5030842;28;20113;-78
2021/11/07 05:03:13;;;;;;;4.60;3.30;;;9.00;94.20;;;;;;5020613;28;20037;-79
2021/11/07 05:05:39;;;;;;;4.90;3.58;;;9.00;94.40;;;;;;5019469;28;20040;-79
2021/11/07 05:08:05;;;;;;;4.95;3.08;;;9.00;94.20;;;;;;5012677;28;20038;-80
2021/11/07 05:10:32;;;;;;;3.75;3.30;;;9.00;94.40;;;;;;5018026;28;20038;-80
2021/11/07 05:12:57;;;;;;;4.90;3.40;;;9.00;94.30;;;;;;5028483;28;20021;-80
2021/11/07 05:15:23;;;;;;;6.28;2.88;;;9.00;94.40;;;;;;5014379;28;20155;-79
2021/11/07 05:17:48;;;;;;;4.45;3.28;;;9.10;94.20;;;;;;5026545;28;20064;-79
2021/11/07 05:20:14;;;;;;;4.82;3.25;;;9.20;94.10;;;;;;5018339;28;20099;-80
2021/11/07 05:22:40;;;;;;;4.75;3.20;;;9.20;94.00;;;;;;5017709;28;20530;-79
2021/11/07 05:25:08;;;;;;;6.25;3.55;;;9.30;94.00;;;;;;5016644;28;20033;-80
2021/11/07 05:27:34;;;;;;;4.28;3.05;;;9.30;93.90;;;;;;5013879;28;20392;-79
2021/11/07 05:30:00;;;;;;;4.88;3.40;;;9.20;93.90;;;;;;5043602;28;20036;-79
2021/11/07 05:32:26;;;;;;;5.15;3.88;;;9.20;93.90;;;;;;5015689;28;20029;-79
2021/11/07 05:34:51;;;;;;;3.78;3.15;;;9.20;94.00;;;;;;5033566;28;20033;-79
2021/11/07 05:37:17;;;;;;;5.50;3.83;;;9.20;94.10;;;;;;5024196;28;20437;-78
2021/11/07 05:39:42;;;;;;;3.58;3.20;;;9.10;94.10;;;;;;5027179;28;20040;-79
2021/11/07 05:42:10;;;;;;;4.07;3.00;;;9.10;94.30;;;;;;5013136;28;20036;-79
2021/11/07 05:44:36;;;;;;;5.32;4.00;;;9.10;94.30;;;;;;5016478;28;20029;-79
2021/11/07 05:47:02;;;;;;;4.20;2.85;;;9.10;94.50;;;;;;5017316;28;20056;-79
2021/11/07 05:49:27;;;;;;;4.75;3.33;;;9.10;94.40;;;;;;5021995;28;20040;-80
2021/11/07 05:51:53;;;;;;;4.78;3.55;;;9.20;94.30;;;;;;5022507;28;20041;-79
2021/11/07 05:54:18;;;;;;;4.32;3.80;;;9.20;94.60;;;;;;5019356;28;20030;-78
2021/11/07 05:56:44;;;;;;;4.72;3.25;;;9.10;94.30;;;;;;5025439;28;20121;-78
2021/11/07 05:59:09;;;;;;;6.35;3.65;;;9.20;94.20;;;;;;5017538;28;20029;-77
2021/11/07 06:01:36;;;;;;;4.28;3.60;;;9.10;94.50;;;;;;5015163;28;20034;-78
2021/11/07 06:04:03;;;;;;;3.72;3.20;;;9.10;94.40;;;;;;5027776;28;20030;-78
2021/11/07 06:06:29;;;;;;;3.80;3.20;;;9.10;94.50;;;;;;5023473;28;20040;-77
2021/11/07 06:08:54;;;;;;;5.35;3.38;;;9.10;94.80;;;;;;5024484;28;20034;-78
2021/11/07 06:11:20;;;;;;;5.22;3.53;;;9.00;94.90;;;;;;5038594;28;20041;-77
2021/11/07 06:13:46;;;;;;;4.05;3.53;;;9.00;95.00;;;;;;5013286;28;20363;-78
2021/11/07 06:16:12;;;;;;;3.95;3.05;;;9.00;95.50;;;;;;5029872;28;20466;-78
2021/11/07 06:18:37;;;;;;;5.22;3.70;;;8.90;95.50;;;;;;5018271;28;20109;-78
2021/11/07 06:21:03;;;;;;;4.10;3.53;;;8.90;95.70;;;;;;5012569;28;20038;-78
2021/11/07 06:23:28;;;;;;;4.82;3.67;;;8.90;95.80;;;;;;5021517;28;20033;-78
2021/11/07 06:25:54;;;;;;;4.20;3.50;;;9.00;95.60;;;;;;5028761;28;20459;-78
2021/11/07 06:28:21;;;;;;;4.38;2.97;;;9.00;95.60;;;;;;5023364;28;20052;-78
2021/11/07 06:30:48;;;;;;;4.63;3.70;;;9.00;95.90;;;;;;5028178;28;20025;-78
2021/11/07 06:33:15;;;;;;;4.68;3.63;;;9.00;96.10;;;;;;5020185;28;20025;-79
2021/11/07 06:35:41;;;;;;;5.55;3.45;;;8.90;96.00;;;;;;5016729;28;20017;-79
2021/11/07 06:38:07;;;;;;;4.85;3.22;;;9.00;96.30;;;;;;5037426;28;20025;-79
2021/11/07 06:40:34;;;;;;;3.97;3.47;;;9.00;96.40;;;;;;5028148;28;20047;-78
2021/11/07 06:43:02;;;;;;;4.60;3.20;;;9.00;96.70;;;;;;5021913;28;20032;-78
2021/11/07 06:45:27;;;;;;;3.30;3.00;;;9.10;96.70;;;;;;5024864;28;20018;-78
2021/11/07 06:47:53;;;;;;;3.95;3.13;;;9.10;96.60;;;;;;5040669;28;20527;-78
2021/11/07 06:50:19;;;;;;;3.10;2.80;;;9.10;96.70;;;;;;5029120;28;20482;-80
2021/11/07 06:52:45;;;;;;;8.80;3.30;;;9.10;96.80;;;;;;5051656;28;20458;-80
2021/11/07 06:55:12;;;;;;;3.85;2.90;;;9.10;96.70;;;;;;5014676;28;20464;-80
2021/11/07 06:57:38;;;;;;;4.00;3.25;;;9.20;96.60;;;;;;5012907;28;20474;-78
2021/11/07 07:00:10;;;;;;;4.70;2.90;;;9.20;96.70;;;;;;5025769;28;20047;-77
2021/11/07 07:02:39;;;;;;;5.72;3.03;;;9.20;96.70;;;;;;5044735;28;20043;-78
2021/11/07 07:05:05;;;;;;;5.45;3.75;;;9.20;96.80;;;;;;5025350;28;20039;-78
2021/11/07 07:07:35;;;;;;;6.00;4.70;;;9.30;96.80;;;;;;5027577;28;20096;-78
2021/11/07 07:10:03;;;;;;;4.10;3.28;;;9.30;96.90;;;;;;5022996;28;20414;-78
2021/11/07 07:13:33;;;;;;;3.58;3.00;;;9.30;97.00;;;;;;5023946;28;20030;-78
2021/11/07 07:15:27;;;;;;;4.65;3.22;;;9.30;97.00;;;;;;5030078;28;20041;-79
2021/11/07 07:31:46;;;;;;;4.32;3.75;;;9.20;97.50;;;;;;5029090;28;20041;-79
2021/11/07 07:34:14;;;;;;;4.47;3.05;;;9.10;97.60;;;;;;5029434;28;20037;-79
2021/11/07 07:36:40;;;;;;;4.72;3.03;;;9.10;97.60;;;;;;5032659;28;20109;-78
2021/11/07 07:39:06;;;;;;;3.65;2.80;;;9.10;97.60;;;;;;5028845;28;20026;-78
2021/11/07 07:41:32;;;;;;;4.32;3.20;;;9.00;97.70;;;;;;5026503;28;20030;-80
2021/11/07 07:44:02;;;;;;;4.80;3.30;;;9.00;97.70;;;;;;5027565;28;20119;-80
2021/11/07 07:46:29;;;;;;;7.18;3.25;;;8.90;97.80;;;;;;5023517;28;20467;-78
2021/11/07 07:48:55;;;;;;;5.97;3.97;;;8.90;97.80;;;;;;5030564;28;20471;-78
2021/11/07 07:51:22;;;;;;;4.93;3.72;;;8.90;97.90;;;;;;5030065;28;20531;-79
2021/11/07 07:53:48;;;;;;;4.75;3.25;;;8.90;98.00;;;;;;5015711;28;20033;-79
2021/11/07 07:56:14;;;;;;;5.72;3.63;;;8.90;97.90;;;;;;5039360;28;20030;-77
2021/11/07 07:58:40;;;;;;;4.78;3.53;;;8.90;98.10;;;;;;5009859;28;20110;-80
2021/11/07 08:01:07;;;;;;;4.60;4.10;;;8.90;97.80;;;;;;5005948;28;20498;-80
2021/11/07 08:03:33;;;;;;;4.30;3.55;;;8.90;98.00;;;;;;5014310;28;20030;-80
2021/11/07 08:05:59;;;;;;;5.63;3.38;;;8.90;97.90;;;;;;5006396;28;20030;-80
2021/11/07 08:08:25;;;;;;;5.20;3.67;;;8.90;97.70;;;;;;4998486;28;20372;-79
2021/11/07 08:10:51;;;;;;;3.92;3.28;;;8.90;97.80;;;;;;5004582;28;20103;-80
2021/11/07 08:13:16;;;;;;;4.03;3.30;;;9.00;97.70;;;;;;5013319;28;20036;-83
2021/11/07 08:15:42;;;;;;;7.63;3.42;;;8.90;97.60;;;;;;5003358;28;20136;-80
2021/11/07 08:18:08;;;;;;;3.88;3.22;;;8.90;97.70;;;;;;5012994;28;20034;-79
2021/11/07 08:20:34;;;;;;;3.00;2.55;;;8.90;97.60;;;;;;5007561;28;20402;-79
2021/11/07 08:23:00;;;;;;;3.35;3.00;;;8.90;97.50;;;;;;5010701;28;20045;-80
2021/11/07 08:25:26;;;;;;;3.67;2.92;;;9.00;97.60;;;;;;5017042;28;20022;-80
2021/11/07 08:28:03;;;;;;;4.15;2.92;;;9.10;97.40;;;;;;5007372;28;20042;-78
2021/11/07 08:30:31;;;;;;;3.92;3.10;;;9.10;97.20;;;;;;5016278;28;20032;-77
2021/11/07 08:32:57;;;;;;;3.20;2.60;;;9.10;97.20;;;;;;5005798;28;20488;-78
2021/11/07 08:35:23;;;;;;;4.57;2.58;;;9.10;97.40;;;;;;5009968;28;20040;-78
2021/11/07 08:38:03;;;;;;;3.50;2.33;;;9.10;97.50;;;;;;5011916;28;20116;-78
2021/11/07 08:40:32;;;;;;;3.38;2.42;;;9.10;97.20;;;;;;5011013;28;20029;-78
2021/11/07 09:02:57;;;;;;;3.55;2.50;;;9.40;96.90;;;;;;5002134;28;20073;-80
2021/11/07 09:05:03;;;;;;;4.78;2.40;;;9.40;97.00;;;;;;4998937;28;20054;-80
2021/11/07 09:10:18;;;;;;;2.97;2.13;;;9.40;96.90;;;;;;5006518;28;20100;-77
2021/11/07 09:12:45;;;;;;;2.72;2.53;;;9.30;97.10;;;;;;4997819;28;20037;-78
2021/11/07 09:15:14;;;;;;;2.25;1.92;;;9.40;97.00;;;;;;5011270;28;20034;-79
2021/11/07 09:17:42;;;;;;;2.42;2.00;;;9.40;97.10;;;;;;5016492;28;20040;-79
2021/11/07 09:20:08;;;;;;;4.22;2.08;;;9.50;96.90;;;;;;5007572;28;20069;-81
2021/11/07 09:22:41;;;;;;;4.43;2.47;;;9.50;96.60;;;;;;5006950;28;20402;-80
2021/11/07 09:25:11;;;;;;;5.80;2.28;;;9.50;96.80;;;;;;5002779;28;20080;-80
2021/11/07 09:30:07;;;;;;;4.25;3.03;;;9.60;96.90;;;;;;5010696;28;20022;-79
2021/11/07 09:32:46;;;;;;;2.38;1.80;;;9.70;96.70;;;;;;5009092;28;20120;-79
2021/11/07 09:37:55;;;;;;;2.08;1.67;;;9.70;96.70;;;;;;5010331;28;20060;-78
2021/11/07 09:40:24;;;;;;;2.20;1.50;;;9.60;96.70;;;;;;5010094;28;20017;-78
2021/11/07 09:47:56;;;;;;;6.93;3.67;;;9.70;96.60;;;;;;5010279;28;20036;-79
2021/11/07 09:50:21;;;;;;;2.53;1.73;;;9.80;96.80;;;;;;5009884;28;20079;-78
2021/11/07 09:52:50;;;;;;;2.95;2.03;;;9.80;96.70;;;;;;5010968;28;20034;-78
2021/11/07 09:55:18;;;;;;;4.00;2.65;;;9.90;96.80;;;;;;5010755;28;20083;-78
2021/11/07 09:57:45;;;;;;;2.85;2.38;;;9.90;96.90;;;;;;5010400;28;20034;-78
2021/11/07 10:00:18;;;;;;;2.90;1.73;;;10.00;96.60;;;;;;5010828;28;20079;-78
2021/11/07 10:02:44;;;;;;;2.35;1.23;;;9.90;96.40;;;;;;5010410;28;20026;-79
2021/11/07 10:05:12;;;;;;;1.52;1.00;;;9.90;96.70;;;;;;5011041;28;20033;-79
2021/11/07 10:07:40;;;;;;;2.85;1.30;;;9.90;96.40;;;;;;5009522;28;20030;-78
2021/11/07 10:10:18;;;;;;;2.13;1.35;;;9.90;96.10;;;;;;5010819;28;20022;-80
2021/11/07 10:12:48;;;;;;;2.40;1.83;;;9.90;96.10;;;;;;5009362;28;20030;-81
2021/11/07 10:18:07;;;;;;;2.35;1.27;;;9.90;96.00;;;;;;5010076;28;20087;-78
2021/11/07 10:20:48;;;;;;;1.77;1.00;;;9.70;96.20;;;;;;5010509;28;20524;-79
2021/11/07 10:23:23;;;;;;;1.33;1.13;;;9.70;96.50;;;;;;5010146;28;20033;-78
2021/11/07 10:25:57;;;;;;;1.30;1.10;;;9.60;96.80;;;;;;5009815;28;20500;-79
2021/11/07 10:28:28;;;;;;;1.02;0.93;;;9.60;96.50;;;;;;5009787;28;20096;-78
2021/11/07 10:31:14;;;;;;;1.08;0.98;;;9.60;96.80;;;;;;4995129;28;20042;-78
2021/11/07 10:37:15;;;;;;;1.10;1.00;;;9.50;96.60;;;;;;4998405;28;20034;-80
2021/11/07 10:48:23;;;;;;;1.70;1.17;;;9.60;96.80;;;;;;5005681;28;20741;-81
2021/11/07 10:53:47;;;;;;;1.40;1.05;;;9.70;96.80;;;;;;5001890;28;20080;-79
2021/11/07 10:56:12;;;;;;;8.45;6.40;;;9.70;96.80;;;;;;5008271;28;20418;-78
2021/11/07 10:58:40;;;;;;;1.20;1.10;;;9.80;97.00;;;;;;5008155;28;20030;-78
2021/11/07 11:01:10;;;;;;;1.23;0.88;;;9.80;97.00;;;;;;4994653;28;20085;-80
2021/11/07 11:03:45;;;;;;;1.38;1.13;;;9.90;97.00;;;;;;5004366;28;20018;-78
2021/11/07 11:06:14;;;;;;;1.30;0.90;;;10.00;97.00;;;;;;5009306;28;20035;-78
2021/11/07 11:08:45;;;;;;;1.83;1.00;;;10.10;96.90;;;;;;5010419;28;20565;-78
2021/11/07 11:11:37;;;;;;;0.80;0.80;;;10.10;96.90;;;;;;4998943;28;20022;-78
2021/11/07 11:19:48;;;;;;;1.00;0.88;;;10.40;96.80;;;;;;5007081;28;20026;-79
2021/11/07 11:25:40;;;;;;;1.00;0.70;;;10.50;96.60;;;;;;4986457;28;20034;-77
2021/11/07 11:28:18;;;;;;;1.10;0.82;;;10.40;96.70;;;;;;4986881;28;20565;-78
2021/11/07 11:33:27;;;;;;;1.23;0.77;;;10.40;96.60;;;;;;5004760;28;20076;-78
2021/11/07 11:36:22;;;;;;;1.35;0.90;;;10.50;96.80;;;;;;5004430;28;20037;-78
2021/11/07 11:38:54;;;;;;;1.00;0.90;;;10.60;96.60;;;;;;5005111;28;20113;-78
2021/11/07 11:41:39;;;;;;;2.15;0.88;;;10.60;96.70;;;;;;4990449;28;20106;-77
2021/11/07 11:44:05;;;;;;;1.95;1.42;;;10.70;96.60;;;;;;5004956;28;20033;-78
2021/11/07 11:47:03;;;;;;;1.30;0.98;;;10.70;96.40;;;;;;5001545;28;20030;-77
2021/11/07 12:03:35;;;;;;;;;;;11.10;95.80;;;;;;4998816;28;20022;-78
2021/11/07 12:06:19;;;;;;;2.63;1.98;;;11.10;95.90;;;;;;5010063;28;20011;-78
2021/11/07 12:08:57;;;;;;;1.80;1.20;;;11.20;95.70;;;;;;5007268;28;20042;-77
2021/11/07 12:11:30;;;;;;;1.20;1.10;;;11.20;95.90;;;;;;5008307;28;20108;-77
2021/11/07 12:14:08;;;;;;;1.85;1.00;;;11.20;95.90;;;;;;4995243;28;20038;-78
2021/11/07 12:16:57;;;;;;;2.13;1.40;;;11.20;95.70;;;;;;5008482;28;20038;-78
2021/11/07 12:19:42;;;;;;;1.88;1.38;;;11.20;95.90;;;;;;5009270;28;20100;-78
2021/11/07 12:22:10;;;;;;;1.30;1.17;;;11.20;96.10;;;;;;4993182;28;20041;-78
2021/11/07 12:24:47;;;;;;;1.77;1.33;;;11.10;96.00;;;;;;4996822;28;20030;-77
2021/11/07 12:27:24;;;;;;;1.55;1.35;;;11.00;96.30;;;;;;5003104;28;20029;-78
2021/11/07 12:29:53;;;;;;;1.63;1.38;;;10.90;96.30;;;;;;4992543;28;20391;-78
2021/11/07 12:32:21;;;;;;;1.77;1.30;;;10.90;96.50;;;;;;5007837;28;20026;-78
2021/11/07 12:35:19;;;;;;;1.65;1.33;;;11.00;96.50;;;;;;5004536;28;20030;-78
2021/11/07 12:40:39;;;;;;;2.67;1.80;;;11.00;96.30;;;;;;5002877;28;20088;-76
2021/11/07 12:43:08;;;;;;;1.50;1.33;;;11.00;96.40;;;;;;5008223;28;20091;-79
2021/11/07 12:45:39;;;;;;;1.35;1.23;;;11.00;96.40;;;;;;5003354;28;20037;-79
2021/11/07 12:48:10;;;;;;;3.90;1.17;;;11.00;96.50;;;;;;5023538;28;20053;-79
2021/11/07 12:50:55;;;;;;;1.65;1.20;;;11.00;96.20;;;;;;5010937;28;20034;-79
2021/11/07 12:53:25;;;;;;;2.88;1.25;;;11.00;96.20;;;;;;5022468;28;20031;-79
2021/11/07 12:55:51;;;;;;;1.60;1.30;;;10.90;96.30;;;;;;5003512;28;20022;-79
2021/11/07 12:58:17;;;;;;;1.20;0.98;;;11.00;96.40;;;;;;5009609;28;20038;-80
2021/11/07 13:00:43;;;;;;;1.75;1.00;;;10.90;96.40;;;;;;5017350;28;20466;-81
2021/11/07 13:03:10;;;;;;;2.03;1.20;;;11.00;96.30;;;;;;5003797;28;20707;-79
2021/11/07 13:05:38;;;;;;;1.63;1.20;;;11.00;96.30;;;;;;5005801;28;20033;-78
2021/11/07 13:08:42;;;;;;;1.48;1.20;;;10.90;96.40;;;;;;5005977;28;20493;-79
2021/11/07 13:11:09;;;;;;;3.63;1.45;;;10.90;96.40;;;;;;4996958;28;20107;-79
2021/11/07 13:13:43;;;;;;;1.67;1.40;;;10.80;96.60;;;;;;5002505;28;20033;-76
2021/11/07 13:16:33;;;;;;;1.20;1.10;;;10.80;96.60;;;;;;5003331;28;20127;-77
2021/11/07 13:19:56;;;;;;;1.67;1.25;;;10.80;96.70;;;;;;5004875;28;20038;-80
2021/11/07 13:27:08;;;;;;;1.50;1.40;;;10.90;96.60;;;;;;5003745;28;20038;-79
2021/11/07 13:29:48;;;;;;;1.50;1.30;;;10.90;96.40;;;;;;5002989;28;20034;-79
2021/11/07 13:32:30;;;;;;;1.38;1.13;;;10.90;96.40;;;;;;4995497;28;20029;-80
2021/11/07 13:35:04;;;;;;;2.00;1.38;;;10.90;96.30;;;;;;5002081;28;20022;-79
2021/11/07 13:37:40;;;;;;;2.10;1.75;;;10.80;96.60;;;;;;5008635;28;20044;-79
2021/11/07 13:40:16;;;;;;;1.58;1.33;;;10.80;96.60;;;;;;4996111;28;20507;-79
2021/11/07 13:42:43;;;;;;;1.73;1.50;;;10.80;96.80;;;;;;5001475;28;20066;-80
2021/11/07 13:45:20;;;;;;;1.42;1.13;;;10.70;96.70;;;;;;5006191;28;20481;-78
2021/11/07 13:47:46;;;;;;;2.33;1.23;;;10.80;96.90;;;;;;5007662;28;20026;-78
2021/11/07 13:50:18;;;;;;;1.23;1.05;;;10.80;96.60;;;;;;5009404;28;20508;-78
2021/11/07 13:52:44;;;;;;;1.20;0.87;;;10.70;96.70;;;;;;4996889;28;20061;-80
2021/11/07 13:55:17;;;;;;;4.63;1.30;;;10.80;96.70;;;;;;5006664;28;20483;-79
2021/11/07 13:57:43;;;;;;;1.20;1.10;;;10.80;96.70;;;;;;5005576;28;20033;-78
2021/11/07 14:00:12;;;;;;;1.85;1.40;;;10.80;96.70;;;;;;5007565;28;20113;-80
2021/11/07 14:02:45;;;;;;;1.52;1.20;;;10.80;96.70;;;;;;5005279;28;20037;-78
2021/11/07 14:05:10;;;;;;;;;;;10.80;96.60;;;;;;5005018;28;20034;-78
2021/11/07 14:07:36;;;;;;;2.20;1.20;;;10.80;96.70;;;;;;5005410;28;20302;-78
2021/11/07 14:10:05;;;;;;;1.40;1.10;;;10.80;96.80;;;;;;5016458;28;20034;-80
2021/11/07 14:12:36;;;;;;;1.55;1.35;;;10.80;97.00;;;;;;5010685;28;20037;-79
2021/11/07 14:15:09;;;;;;;1.35;1.25;;;10.80;96.70;;;;;;5003625;28;20026;-78
2021/11/07 14:17:35;;;;;;;;;;;10.80;96.50;;;;;;4996834;28;20100;-78
2021/11/07 14:20:03;;;;;;;1.48;0.95;;;10.70;96.40;;;;;;4990165;28;19960;-77
2021/11/07 14:22:28;;;;;;;1.63;1.10;;;10.70;96.70;;;;;;5000284;28;20036;-79
2021/11/07 14:25:03;;;;;;;1.20;0.98;;;10.70;96.80;;;;;;5009301;28;20037;-79
2021/11/07 14:27:34;;;;;;;1.10;0.93;;;10.60;97.00;;;;;;5009828;28;20536;-79
2021/11/07 14:30:04;;;;;;;1.17;0.98;;;10.70;97.00;;;;;;4998817;28;20479;-78
2021/11/07 14:32:36;;;;;;;2.08;0.90;;;10.70;96.90;;;;;;4994834;28;20035;-78
2021/11/07 14:37:40;;;;;;;1.52;1.30;;;10.80;96.80;;;;;;4992118;28;20037;-77
2021/11/07 14:40:16;;;;;;;2.00;1.13;;;10.80;97.00;;;;;;4989085;28;20026;-79
2021/11/07 14:43:06;;;;;;;1.73;1.00;;;10.80;96.70;;;;;;4987040;28;20066;-79
2021/11/07 14:46:29;;;;;;;1.33;1.10;;;10.70;97.10;;;;;;4997311;28;20034;-79
2021/11/07 14:48:54;;;;;;;1.25;0.90;;;10.70;97.10;;;;;;5002330;28;20033;-80
2021/11/07 14:56:51;;;;;;;3.78;1.20;;;10.60;97.20;;;;;;4998408;28;20040;-79
2021/11/07 15:02:33;;;;;;;3.50;1.23;;;10.70;97.60;;;;;;4999634;28;20072;-79
2021/11/07 15:05:05;;;;;;;2.00;1.40;;;10.70;97.70;;;;;;5005572;28;20088;-79
2021/11/07 15:10:14;;;;;;;4.45;1.58;;;10.50;98.50;;;;;;5004774;28;20026;-78
2021/11/07 15:12:52;;;;;;;1.83;1.40;;;10.50;98.60;;;;;;5013607;28;20034;-79
2021/11/07 15:15:47;;;;;;;2.83;1.10;;;10.50;98.50;;;;;;5001309;28;20036;-79
2021/11/07 15:18:45;;;;;;;2.88;1.60;;;10.60;98.50;;;;;;5002333;28;20368;-79